createdAt,value
2018-07-27T00:00:15.889Z,95562.00
2018-07-27T00:00:47.934Z,95561.00
2018-07-27T00:01:19.947Z,95557.00
2018-07-27T00:01:51.954Z,95556.00
2018-07-27T00:02:23.958Z,95556.00
2018-07-27T00:02:55.997Z,95560.00
2018-07-27T00:03:28.010Z,95554.00
2018-07-27T00:04:00.027Z,95552.00
2018-07-27T00:04:32.030Z,95555.00
2018-07-27T00:05:04.055Z,95554.00
2018-07-27T00:05:36.081Z,95551.00
2018-07-27T00:06:08.088Z,95555.00
2018-07-27T00:06:40.107Z,95553.00
2018-07-27T00:07:12.262Z,95555.00
2018-07-27T00:07:44.300Z,95550.00
2018-07-27T00:08:16.311Z,95549.00
2018-07-27T00:08:48.318Z,95553.00
2018-07-27T00:09:20.335Z,95552.00
2018-07-27T00:09:52.343Z,95551.00
2018-07-27T00:10:24.352Z,95553.00
2018-07-27T00:10:56.361Z,95551.00
2018-07-27T00:11:28.378Z,95550.00
2018-07-27T00:12:00.505Z,95552.00
2018-07-27T00:12:32.517Z,95551.00
2018-07-27T00:13:04.562Z,95549.00
2018-07-27T00:13:36.587Z,95551.00
2018-07-27T00:14:08.594Z,95551.00
2018-07-27T00:14:40.611Z,95548.00
2018-07-27T00:15:12.627Z,95553.00
2018-07-27T00:15:44.649Z,95556.00
2018-07-27T00:16:16.663Z,95556.00
2018-07-27T00:16:48.675Z,95559.00
2018-07-27T00:17:20.698Z,95553.00
2018-07-27T00:17:52.731Z,95553.00
2018-07-27T00:18:24.746Z,95554.00
2018-07-27T00:18:56.759Z,95550.00
2018-07-27T00:19:28.797Z,95551.00
2018-07-27T00:20:00.792Z,95549.00
2018-07-27T00:20:32.821Z,95556.00
2018-07-27T00:21:04.834Z,95556.00
2018-07-27T00:21:36.846Z,95558.00
2018-07-27T00:22:08.874Z,95553.00
2018-07-27T00:22:40.898Z,95555.00
2018-07-27T00:23:12.920Z,95555.00
2018-07-27T00:23:44.926Z,95555.00
2018-07-27T00:24:16.941Z,95548.00
2018-07-27T00:24:48.969Z,95557.00
2018-07-27T00:25:20.986Z,95549.00
2018-07-27T00:25:52.993Z,95550.00
2018-07-27T00:26:24.997Z,95549.00
2018-07-27T00:26:57.019Z,95545.00
2018-07-27T00:27:29.039Z,95544.00
2018-07-27T00:28:01.050Z,95547.00
2018-07-27T00:28:33.061Z,95538.00
2018-07-27T00:29:05.087Z,95535.00
2018-07-27T00:29:37.103Z,95536.00
2018-07-27T00:30:09.125Z,95541.00
2018-07-27T00:30:41.146Z,95544.00
2018-07-27T00:31:13.167Z,95542.00
2018-07-27T00:31:45.176Z,95539.00
2018-07-27T00:32:17.206Z,95542.00
2018-07-27T00:32:49.231Z,95536.00
2018-07-27T00:33:21.654Z,95535.00
2018-07-27T00:33:53.522Z,95540.00
2018-07-27T00:34:25.532Z,95535.00
2018-07-27T00:34:57.537Z,95536.00
2018-07-27T00:35:29.553Z,95535.00
2018-07-27T00:36:01.570Z,95536.00
2018-07-27T00:36:33.587Z,95531.00
2018-07-27T00:37:05.603Z,95534.00
2018-07-27T00:37:37.610Z,95535.00
2018-07-27T00:38:09.628Z,95535.00
2018-07-27T00:38:41.630Z,95537.00
2018-07-27T00:39:13.651Z,95535.00
2018-07-27T00:39:45.658Z,95533.00
2018-07-27T00:40:17.665Z,95543.00
2018-07-27T00:40:49.673Z,95529.00
2018-07-27T00:41:21.688Z,95531.00
2018-07-27T00:41:53.713Z,95530.00
2018-07-27T00:42:25.768Z,95532.00
2018-07-27T00:42:57.775Z,95534.00
2018-07-27T00:43:29.816Z,95531.00
2018-07-27T00:44:01.856Z,95534.00
2018-07-27T00:44:33.876Z,95530.00
2018-07-27T00:45:06.010Z,95533.00
2018-07-27T00:45:38.026Z,95531.00
2018-07-27T00:46:10.042Z,95530.00
2018-07-27T00:46:42.045Z,95531.00
2018-07-27T00:47:14.069Z,95534.00
2018-07-27T00:47:46.081Z,95528.00
2018-07-27T00:48:18.175Z,95526.00
2018-07-27T00:48:50.193Z,95527.00
2018-07-27T00:49:22.201Z,95531.00
2018-07-27T00:49:54.221Z,95526.00
2018-07-27T00:50:26.232Z,95526.00
2018-07-27T00:50:58.234Z,95529.00
2018-07-27T00:51:30.253Z,95526.00
2018-07-27T00:52:02.266Z,95531.00
2018-07-27T00:52:34.281Z,95525.00
2018-07-27T00:53:06.293Z,95524.00
2018-07-27T00:53:38.319Z,95528.00
2018-07-27T00:54:10.333Z,95524.00
2018-07-27T00:54:42.342Z,95523.00
2018-07-27T00:55:14.351Z,95523.00
2018-07-27T00:55:46.388Z,95527.00
2018-07-27T00:56:18.391Z,95525.00
2018-07-27T00:56:50.403Z,95526.00
2018-07-27T00:57:22.454Z,95524.00
2018-07-27T00:57:54.463Z,95522.00
2018-07-27T00:58:26.477Z,95528.00
2018-07-27T00:58:58.506Z,95524.00
2018-07-27T00:59:30.515Z,95522.00
2018-07-27T01:00:02.596Z,95525.00
2018-07-27T01:00:34.603Z,95522.00
2018-07-27T01:01:06.632Z,95522.00
2018-07-27T01:01:38.640Z,95523.00
2018-07-27T01:02:10.663Z,95525.00
2018-07-27T01:02:42.668Z,95530.00
2018-07-27T01:03:14.693Z,95527.00
2018-07-27T01:03:46.710Z,95527.00
2018-07-27T01:04:18.719Z,95529.00
2018-07-27T01:04:50.764Z,95529.00
2018-07-27T01:05:22.770Z,95529.00
2018-07-27T01:05:54.794Z,95529.00
2018-07-27T01:06:26.797Z,95532.00
2018-07-27T01:06:58.809Z,95529.00
2018-07-27T01:07:30.831Z,95531.00
2018-07-27T01:08:02.900Z,95528.00
2018-07-27T01:08:34.919Z,95533.00
2018-07-27T01:09:06.936Z,95537.00
2018-07-27T01:09:38.950Z,95540.00
2018-07-27T01:10:11.350Z,95534.00
2018-07-27T01:10:43.248Z,95536.00
2018-07-27T01:11:15.258Z,95539.00
2018-07-27T01:11:47.281Z,95531.00
2018-07-27T01:12:19.307Z,95537.00
2018-07-27T01:12:51.315Z,95540.00
2018-07-27T01:13:23.325Z,95541.00
2018-07-27T01:13:55.340Z,95538.00
2018-07-27T01:14:27.356Z,95539.00
2018-07-27T01:14:59.378Z,95537.00
2018-07-27T01:15:31.395Z,95539.00
2018-07-27T01:16:03.452Z,95542.00
2018-07-27T01:16:35.463Z,95543.00
2018-07-27T01:17:07.513Z,95542.00
2018-07-27T01:17:39.542Z,95545.00
2018-07-27T01:18:11.567Z,95545.00
2018-07-27T01:18:43.581Z,95543.00
2018-07-27T01:19:15.606Z,95544.00
2018-07-27T01:19:47.631Z,95537.00
2018-07-27T01:20:19.663Z,95543.00
2018-07-27T01:20:51.694Z,95542.00
2018-07-27T01:21:23.716Z,95545.00
2018-07-27T01:21:55.738Z,95545.00
2018-07-27T01:22:27.781Z,95541.00
2018-07-27T01:22:59.794Z,95545.00
2018-07-27T01:23:31.839Z,95544.00
2018-07-27T01:24:03.845Z,95539.00
2018-07-27T01:24:35.878Z,95544.00
2018-07-27T01:25:07.894Z,95547.00
2018-07-27T01:25:39.915Z,95543.00
2018-07-27T01:26:11.919Z,95544.00
2018-07-27T01:26:43.931Z,95547.00
2018-07-27T01:27:15.940Z,95549.00
2018-07-27T01:27:47.984Z,95544.00
2018-07-27T01:28:20.006Z,95546.00
2018-07-27T01:28:52.068Z,95548.00
2018-07-27T01:29:24.066Z,95548.00
2018-07-27T01:29:56.082Z,95549.00
2018-07-27T01:30:28.098Z,95549.00
2018-07-27T01:31:00.132Z,95547.00
2018-07-27T01:31:32.171Z,95548.00
2018-07-27T01:32:04.231Z,95543.00
2018-07-27T01:32:36.250Z,95547.00
2018-07-27T01:33:08.322Z,95542.00
2018-07-27T01:33:40.333Z,95544.00
2018-07-27T01:34:12.360Z,95543.00
2018-07-27T01:34:44.411Z,95542.00
2018-07-27T01:35:16.418Z,95541.00
2018-07-27T01:35:48.453Z,95541.00
2018-07-27T01:36:20.505Z,95538.00
2018-07-27T01:36:52.550Z,95544.00
2018-07-27T01:37:24.607Z,95539.00
2018-07-27T01:37:56.594Z,95541.00
2018-07-27T01:38:28.633Z,95542.00
2018-07-27T01:39:01.076Z,95541.00
2018-07-27T01:39:32.968Z,95544.00
2018-07-27T01:40:05.009Z,95539.00
2018-07-27T01:40:37.069Z,95540.00
2018-07-27T01:41:09.082Z,95540.00
2018-07-27T01:41:41.113Z,95540.00
2018-07-27T01:42:13.122Z,95539.00
2018-07-27T01:42:45.133Z,95543.00
2018-07-27T01:43:17.174Z,95543.00
2018-07-27T01:43:49.194Z,95541.00
2018-07-27T01:44:21.203Z,95538.00
2018-07-27T01:44:53.229Z,95537.00
2018-07-27T01:45:25.321Z,95541.00
2018-07-27T01:45:57.334Z,95537.00
2018-07-27T01:46:29.351Z,95535.00
2018-07-27T01:47:01.396Z,95537.00
2018-07-27T01:47:33.432Z,95538.00
2018-07-27T01:48:05.473Z,95536.00
2018-07-27T01:48:37.502Z,95539.00
2018-07-27T01:49:09.540Z,95542.00
2018-07-27T01:49:41.549Z,95537.00
2018-07-27T01:50:13.562Z,95536.00
2018-07-27T01:50:45.659Z,95541.00
2018-07-27T01:51:17.689Z,95536.00
2018-07-27T01:51:49.747Z,95539.00
2018-07-27T01:52:21.755Z,95538.00
2018-07-27T01:52:53.781Z,95539.00
2018-07-27T01:53:25.774Z,95536.00
2018-07-27T01:53:57.799Z,95539.00
2018-07-27T01:54:29.814Z,95533.00
2018-07-27T01:55:01.817Z,95535.00
2018-07-27T01:55:33.840Z,95532.00
2018-07-27T01:56:05.850Z,95530.00
2018-07-27T01:56:37.862Z,95532.00
2018-07-27T01:57:09.858Z,95532.00
2018-07-27T01:57:41.879Z,95536.00
2018-07-27T01:58:13.892Z,95531.00
2018-07-27T01:58:45.966Z,95531.00
2018-07-27T01:59:17.971Z,95535.00
2018-07-27T01:59:49.990Z,95528.00
2018-07-27T02:00:22.011Z,95525.00
2018-07-27T02:00:54.028Z,95521.00
2018-07-27T02:01:26.037Z,95528.00
2018-07-27T02:01:58.043Z,95520.00
2018-07-27T02:02:30.104Z,95521.00
2018-07-27T02:03:02.119Z,95518.00
2018-07-27T02:03:34.121Z,95522.00
2018-07-27T02:04:06.131Z,95521.00
2018-07-27T02:04:38.159Z,95523.00
2018-07-27T02:05:10.188Z,95526.00
2018-07-27T02:05:42.215Z,95523.00
2018-07-27T02:06:14.245Z,95526.00
2018-07-27T02:06:46.252Z,95523.00
2018-07-27T02:07:18.291Z,95523.00
2018-07-27T02:07:50.296Z,95525.00
2018-07-27T02:08:22.351Z,95529.00
2018-07-27T02:08:54.359Z,95527.00
2018-07-27T02:09:26.394Z,95527.00
2018-07-27T02:09:58.408Z,95531.00
2018-07-27T02:10:30.420Z,95529.00
2018-07-27T02:11:02.438Z,95531.00
2018-07-27T02:11:34.483Z,95531.00
2018-07-27T02:12:06.524Z,95531.00
2018-07-27T02:12:38.531Z,95537.00
2018-07-27T02:13:10.546Z,95540.00
2018-07-27T02:13:42.579Z,95543.00
2018-07-27T02:14:14.577Z,95539.00
2018-07-27T02:14:46.598Z,95541.00
2018-07-27T02:15:18.630Z,95541.00
2018-07-27T02:15:50.629Z,95542.00
2018-07-27T02:16:22.628Z,95541.00
2018-07-27T02:16:54.650Z,95546.00
2018-07-27T02:17:26.652Z,95545.00
2018-07-27T02:17:58.691Z,95543.00
2018-07-27T02:18:30.708Z,95548.00
2018-07-27T02:19:02.703Z,95545.00
2018-07-27T02:19:34.733Z,95547.00
2018-07-27T02:20:06.742Z,95548.00
2018-07-27T02:20:38.780Z,95549.00
2018-07-27T02:21:10.790Z,95550.00
2018-07-27T02:21:42.900Z,95549.00
2018-07-27T02:22:14.919Z,95550.00
2018-07-27T02:22:47.050Z,95548.00
2018-07-27T02:23:19.159Z,95543.00
2018-07-27T02:23:51.170Z,95537.00
2018-07-27T02:24:23.590Z,95536.00
2018-07-27T02:24:55.471Z,95531.00
2018-07-27T02:25:27.500Z,95533.00
2018-07-27T02:25:59.515Z,95534.00
2018-07-27T02:26:31.541Z,95534.00
2018-07-27T02:27:03.614Z,95537.00
2018-07-27T02:27:35.630Z,95536.00
2018-07-27T02:28:07.662Z,95539.00
2018-07-27T02:28:39.670Z,95538.00
2018-07-27T02:29:11.689Z,95537.00
2018-07-27T02:29:43.715Z,95543.00
2018-07-27T02:30:15.724Z,95544.00
2018-07-27T02:30:47.726Z,95544.00
2018-07-27T02:31:19.739Z,95546.00
2018-07-27T02:31:51.760Z,95546.00
2018-07-27T02:32:23.767Z,95547.00
2018-07-27T02:32:55.780Z,95546.00
2018-07-27T02:33:27.794Z,95545.00
2018-07-27T02:33:59.817Z,95544.00
2018-07-27T02:34:31.879Z,95548.00
2018-07-27T02:35:03.847Z,95548.00
2018-07-27T02:35:35.850Z,95548.00
2018-07-27T02:36:07.858Z,95547.00
2018-07-27T02:36:39.942Z,95547.00
2018-07-27T02:37:11.951Z,95551.00
2018-07-27T02:37:43.974Z,95547.00
2018-07-27T02:38:16.000Z,95547.00
2018-07-27T02:38:48.034Z,95549.00
2018-07-27T02:39:20.039Z,95548.00
2018-07-27T02:39:52.065Z,95546.00
2018-07-27T02:40:24.083Z,95546.00
2018-07-27T02:40:56.111Z,95543.00
2018-07-27T02:41:28.137Z,95544.00
2018-07-27T02:42:00.147Z,95541.00
2018-07-27T02:42:32.166Z,95544.00
2018-07-27T02:43:04.270Z,95542.00
2018-07-27T02:43:36.237Z,95544.00
2018-07-27T02:44:08.254Z,95541.00
2018-07-27T02:44:40.259Z,95542.00
2018-07-27T02:45:12.272Z,95543.00
2018-07-27T02:45:44.275Z,95536.00
2018-07-27T02:46:16.302Z,95541.00
2018-07-27T02:46:48.308Z,95536.00
2018-07-27T02:47:20.326Z,95539.00
2018-07-27T02:47:52.345Z,95538.00
2018-07-27T02:48:24.345Z,95536.00
2018-07-27T02:48:56.352Z,95537.00
2018-07-27T02:49:28.364Z,95543.00
2018-07-27T02:50:00.506Z,95539.00
2018-07-27T02:50:32.527Z,95537.00
2018-07-27T02:51:04.590Z,95543.00
2018-07-27T02:51:36.615Z,95539.00
2018-07-27T02:52:08.638Z,95545.00
2018-07-27T02:52:40.657Z,95540.00
2018-07-27T02:53:12.687Z,95537.00
2018-07-27T02:53:44.696Z,95538.00
2018-07-27T02:54:16.708Z,95537.00
2018-07-27T02:54:48.731Z,95536.00
2018-07-27T02:55:20.738Z,95537.00
2018-07-27T02:55:53.162Z,95533.00
2018-07-27T02:56:25.490Z,95537.00
2018-07-27T02:56:57.741Z,95540.00
2018-07-27T02:57:29.736Z,95540.00
2018-07-27T02:58:01.750Z,95539.00
2018-07-27T02:58:33.767Z,95540.00
2018-07-27T02:59:05.770Z,95536.00
2018-07-27T02:59:37.791Z,95538.00
2018-07-27T03:00:09.798Z,95537.00
2018-07-27T03:00:41.806Z,95535.00
2018-07-27T03:01:13.853Z,95537.00
2018-07-27T03:01:45.864Z,95529.00
2018-07-27T03:02:17.889Z,95536.00
2018-07-27T03:02:49.917Z,95537.00
2018-07-27T03:03:21.932Z,95540.00
2018-07-27T03:03:53.941Z,95536.00
2018-07-27T03:04:25.967Z,95537.00
2018-07-27T03:04:57.996Z,95533.00
2018-07-27T03:05:29.987Z,95530.00
2018-07-27T03:06:02.011Z,95530.00
2018-07-27T03:06:34.023Z,95531.00
2018-07-27T03:07:06.034Z,95531.00
2018-07-27T03:07:38.073Z,95531.00
2018-07-27T03:08:10.086Z,95532.00
2018-07-27T03:08:42.180Z,95533.00
2018-07-27T03:09:14.212Z,95528.00
2018-07-27T03:09:46.288Z,95528.00
2018-07-27T03:10:18.253Z,95529.00
2018-07-27T03:10:50.273Z,95531.00
2018-07-27T03:11:22.318Z,95524.00
2018-07-27T03:11:54.331Z,95526.00
2018-07-27T03:12:26.348Z,95529.00
2018-07-27T03:12:58.394Z,95521.00
2018-07-27T03:13:30.425Z,95526.00
2018-07-27T03:14:02.433Z,95526.00
2018-07-27T03:14:34.443Z,95523.00
2018-07-27T03:15:06.462Z,95525.00
2018-07-27T03:15:38.482Z,95523.00
2018-07-27T03:16:10.518Z,95526.00
2018-07-27T03:16:42.547Z,95520.00
2018-07-27T03:17:14.587Z,95522.00
2018-07-27T03:17:46.597Z,95518.00
2018-07-27T03:18:18.621Z,95521.00
2018-07-27T03:18:50.628Z,95519.00
2018-07-27T03:19:22.670Z,95524.00
2018-07-27T03:19:54.683Z,95524.00
2018-07-27T03:20:26.721Z,95524.00
2018-07-27T03:20:58.731Z,95520.00
2018-07-27T03:21:30.758Z,95519.00
2018-07-27T03:22:02.782Z,95515.00
2018-07-27T03:22:34.809Z,95517.00
2018-07-27T03:23:06.836Z,95517.00
2018-07-27T03:23:38.842Z,95514.00
2018-07-27T03:24:10.879Z,95517.00
2018-07-27T03:24:42.898Z,95511.00
2018-07-27T03:25:14.900Z,95512.00
2018-07-27T03:25:46.914Z,95514.00
2018-07-27T03:26:18.943Z,95514.00
2018-07-27T03:26:50.949Z,95513.00
2018-07-27T03:27:22.966Z,95515.00
2018-07-27T03:27:54.985Z,95513.00
2018-07-27T03:28:27.005Z,95514.00
2018-07-27T03:28:59.016Z,95513.00
2018-07-27T03:29:31.043Z,95513.00
2018-07-27T03:30:03.054Z,95517.00
2018-07-27T03:30:35.059Z,95514.00
2018-07-27T03:31:07.067Z,95514.00
2018-07-27T03:31:39.114Z,95510.00
2018-07-27T03:32:11.136Z,95511.00
2018-07-27T03:32:43.169Z,95508.00
2018-07-27T03:33:15.196Z,95508.00
2018-07-27T03:33:47.231Z,95511.00
2018-07-27T03:34:19.242Z,95509.00
2018-07-27T03:34:51.265Z,95511.00
2018-07-27T03:35:23.288Z,95505.00
2018-07-27T03:35:55.326Z,95504.00
2018-07-27T03:36:27.339Z,95506.00
2018-07-27T03:36:59.342Z,95506.00
2018-07-27T03:37:31.357Z,95507.00
2018-07-27T03:38:03.403Z,95509.00
2018-07-27T03:38:35.407Z,95510.00
2018-07-27T03:39:07.417Z,95507.00
2018-07-27T03:39:39.443Z,95507.00
2018-07-27T03:40:11.471Z,95514.00
2018-07-27T03:40:43.485Z,95511.00
2018-07-27T03:41:15.514Z,95515.00
2018-07-27T03:41:47.544Z,95505.00
2018-07-27T03:42:19.573Z,95509.00
2018-07-27T03:42:51.601Z,95511.00
2018-07-27T03:43:23.622Z,95510.00
2018-07-27T03:43:55.631Z,95509.00
2018-07-27T03:44:27.639Z,95508.00
2018-07-27T03:44:59.658Z,95513.00
2018-07-27T03:45:31.688Z,95512.00
2018-07-27T03:46:03.686Z,95508.00
2018-07-27T03:46:35.691Z,95509.00
2018-07-27T03:47:07.755Z,95509.00
2018-07-27T03:47:39.764Z,95511.00
2018-07-27T03:48:11.779Z,95509.00
2018-07-27T03:48:43.781Z,95505.00
2018-07-27T03:49:15.787Z,95508.00
2018-07-27T03:49:47.807Z,95509.00
2018-07-27T03:50:19.827Z,95509.00
2018-07-27T03:50:51.843Z,95506.00
2018-07-27T03:51:23.886Z,95508.00
2018-07-27T03:51:55.894Z,95508.00
2018-07-27T03:52:27.985Z,95509.00
2018-07-27T03:53:00.015Z,95502.00
2018-07-27T03:53:32.056Z,95504.00
2018-07-27T03:54:04.072Z,95504.00
2018-07-27T03:54:36.075Z,95505.00
2018-07-27T03:55:08.099Z,95507.00
2018-07-27T03:55:40.115Z,95509.00
2018-07-27T03:56:12.127Z,95512.00
2018-07-27T03:56:44.139Z,95507.00
2018-07-27T03:57:16.161Z,95508.00
2018-07-27T03:57:48.169Z,95509.00
2018-07-27T03:58:20.184Z,95503.00
2018-07-27T03:58:52.194Z,95508.00
2018-07-27T03:59:24.195Z,95506.00
2018-07-27T03:59:56.602Z,95508.00
2018-07-27T04:00:28.503Z,95510.00
2018-07-27T04:01:00.508Z,95510.00
2018-07-27T04:01:32.507Z,95512.00
2018-07-27T04:02:04.524Z,95510.00
2018-07-27T04:02:36.550Z,95507.00
2018-07-27T04:03:08.573Z,95509.00
2018-07-27T04:03:40.590Z,95508.00
2018-07-27T04:04:12.608Z,95509.00
2018-07-27T04:04:44.629Z,95506.00
2018-07-27T04:05:16.644Z,95511.00
2018-07-27T04:05:48.663Z,95507.00
2018-07-27T04:06:20.714Z,95509.00
2018-07-27T04:06:52.730Z,95510.00
2018-07-27T04:07:24.785Z,95513.00
2018-07-27T04:07:56.760Z,95513.00
2018-07-27T04:08:28.818Z,95510.00
2018-07-27T04:09:00.782Z,95514.00
2018-07-27T04:09:32.835Z,95512.00
2018-07-27T04:10:04.857Z,95512.00
2018-07-27T04:10:36.870Z,95514.00
2018-07-27T04:11:08.873Z,95518.00
2018-07-27T04:11:40.922Z,95511.00
2018-07-27T04:12:12.946Z,95512.00
2018-07-27T04:12:44.961Z,95512.00
2018-07-27T04:13:16.962Z,95511.00
2018-07-27T04:13:48.998Z,95506.00
2018-07-27T04:14:21.019Z,95508.00
2018-07-27T04:14:53.067Z,95509.00
2018-07-27T04:15:25.213Z,95506.00
2018-07-27T04:15:57.290Z,95506.00
2018-07-27T04:16:29.312Z,95508.00
2018-07-27T04:17:01.334Z,95506.00
2018-07-27T04:17:33.347Z,95506.00
2018-07-27T04:18:05.367Z,95505.00
2018-07-27T04:18:37.394Z,95508.00
2018-07-27T04:19:09.407Z,95508.00
2018-07-27T04:19:41.441Z,95505.00
2018-07-27T04:20:13.467Z,95504.00
2018-07-27T04:20:45.499Z,95507.00
2018-07-27T04:21:17.521Z,95504.00
2018-07-27T04:21:49.553Z,95504.00
2018-07-27T04:22:21.594Z,95508.00
2018-07-27T04:22:53.583Z,95503.00
2018-07-27T04:23:25.611Z,95505.00
2018-07-27T04:23:57.646Z,95504.00
2018-07-27T04:24:29.665Z,95497.00
2018-07-27T04:25:01.699Z,95501.00
2018-07-27T04:25:33.701Z,95498.00
2018-07-27T04:26:05.749Z,95502.00
2018-07-27T04:26:37.755Z,95499.00
2018-07-27T04:27:09.835Z,95498.00
2018-07-27T04:27:41.867Z,95496.00
2018-07-27T04:28:13.890Z,95500.00
2018-07-27T04:28:45.905Z,95502.00
2018-07-27T04:29:18.042Z,95504.00
2018-07-27T04:29:50.019Z,95503.00
2018-07-27T04:30:22.037Z,95501.00
2018-07-27T04:30:54.095Z,95501.00
2018-07-27T04:31:26.093Z,95504.00
2018-07-27T04:31:58.162Z,95504.00
2018-07-27T04:32:30.174Z,95506.00
2018-07-27T04:33:02.191Z,95508.00
2018-07-27T04:33:34.199Z,95501.00
2018-07-27T04:34:06.267Z,95501.00
2018-07-27T04:34:38.284Z,95505.00
2018-07-27T04:35:10.358Z,95502.00
2018-07-27T04:35:42.383Z,95506.00
2018-07-27T04:36:14.782Z,95503.00
2018-07-27T04:36:46.694Z,95505.00
2018-07-27T04:37:18.742Z,95506.00
2018-07-27T04:37:50.760Z,95504.00
2018-07-27T04:38:22.781Z,95506.00
2018-07-27T04:38:54.810Z,95503.00
2018-07-27T04:39:26.831Z,95505.00
2018-07-27T04:39:58.860Z,95501.00
2018-07-27T04:40:30.880Z,95502.00
2018-07-27T04:41:02.913Z,95495.00
2018-07-27T04:41:34.938Z,95503.00
2018-07-27T04:42:06.956Z,95496.00
2018-07-27T04:42:38.987Z,95498.00
2018-07-27T04:43:10.990Z,95502.00
2018-07-27T04:43:43.005Z,95501.00
2018-07-27T04:44:15.030Z,95501.00
2018-07-27T04:44:47.042Z,95495.00
2018-07-27T04:45:19.066Z,95501.00
2018-07-27T04:45:51.086Z,95499.00
2018-07-27T04:46:23.101Z,95504.00
2018-07-27T04:46:55.110Z,95503.00
2018-07-27T04:47:27.127Z,95504.00
2018-07-27T04:47:59.185Z,95507.00
2018-07-27T04:48:31.213Z,95498.00
2018-07-27T04:49:03.231Z,95497.00
2018-07-27T04:49:35.270Z,95494.00
2018-07-27T04:50:07.271Z,95497.00
2018-07-27T04:50:39.285Z,95500.00
2018-07-27T04:51:11.302Z,95500.00
2018-07-27T04:51:43.319Z,95497.00
2018-07-27T04:52:15.332Z,95498.00
2018-07-27T04:52:47.346Z,95497.00
2018-07-27T04:53:19.375Z,95500.00
2018-07-27T04:53:51.408Z,95502.00
2018-07-27T04:54:23.410Z,95499.00
2018-07-27T04:54:55.439Z,95497.00
2018-07-27T04:55:27.459Z,95498.00
2018-07-27T04:55:59.483Z,95499.00
2018-07-27T04:56:31.543Z,95495.00
2018-07-27T04:57:03.506Z,95497.00
2018-07-27T04:57:35.521Z,95496.00
2018-07-27T04:58:07.596Z,95498.00
2018-07-27T04:58:39.583Z,95494.00
2018-07-27T04:59:11.601Z,95498.00
2018-07-27T04:59:43.604Z,95499.00
2018-07-27T05:00:15.635Z,95498.00
2018-07-27T05:00:47.675Z,95497.00
2018-07-27T05:01:19.739Z,95502.00
2018-07-27T05:01:51.776Z,95499.00
2018-07-27T05:02:23.802Z,95497.00
2018-07-27T05:02:55.809Z,95499.00
2018-07-27T05:03:27.828Z,95491.00
2018-07-27T05:03:59.848Z,95498.00
2018-07-27T05:04:31.925Z,95495.00
2018-07-27T05:05:03.882Z,95501.00
2018-07-27T05:05:36.110Z,95497.00
2018-07-27T05:06:08.133Z,95498.00
2018-07-27T05:06:40.167Z,95498.00
2018-07-27T05:07:12.213Z,95498.00
2018-07-27T05:07:44.252Z,95499.00
2018-07-27T05:08:16.301Z,95496.00
2018-07-27T05:08:48.312Z,95499.00
2018-07-27T05:09:20.319Z,95498.00
2018-07-27T05:09:52.331Z,95500.00
2018-07-27T05:10:24.347Z,95497.00
2018-07-27T05:10:56.377Z,95500.00
2018-07-27T05:11:28.397Z,95499.00
2018-07-27T05:12:00.408Z,95496.00
2018-07-27T05:12:32.440Z,95498.00
2018-07-27T05:13:04.438Z,95501.00
2018-07-27T05:13:36.459Z,95498.00
2018-07-27T05:14:08.475Z,95500.00
2018-07-27T05:14:40.479Z,95503.00
2018-07-27T05:15:12.493Z,95499.00
2018-07-27T05:15:44.510Z,95503.00
2018-07-27T05:16:16.535Z,95501.00
2018-07-27T05:16:48.552Z,95501.00
2018-07-27T05:17:20.550Z,95503.00
2018-07-27T05:17:52.591Z,95502.00
2018-07-27T05:18:24.602Z,95501.00
2018-07-27T05:18:56.685Z,95507.00
2018-07-27T05:19:28.682Z,95511.00
2018-07-27T05:20:00.736Z,95509.00
2018-07-27T05:20:32.755Z,95505.00
2018-07-27T05:21:04.807Z,95505.00
2018-07-27T05:21:36.798Z,95506.00
2018-07-27T05:22:08.824Z,95506.00
2018-07-27T05:22:40.847Z,95509.00
2018-07-27T05:23:12.954Z,95510.00
2018-07-27T05:23:44.967Z,95508.00
2018-07-27T05:24:17.018Z,95511.00
2018-07-27T05:24:49.086Z,95510.00
2018-07-27T05:25:21.098Z,95517.00
2018-07-27T05:25:53.106Z,95519.00
2018-07-27T05:26:25.135Z,95515.00
2018-07-27T05:26:57.144Z,95515.00
2018-07-27T05:27:29.163Z,95519.00
2018-07-27T05:28:01.204Z,95510.00
2018-07-27T05:28:33.206Z,95517.00
2018-07-27T05:29:05.231Z,95514.00
2018-07-27T05:29:37.263Z,95517.00
2018-07-27T05:30:09.274Z,95514.00
2018-07-27T05:30:41.341Z,95513.00
2018-07-27T05:31:13.354Z,95516.00
2018-07-27T05:31:45.363Z,95519.00
2018-07-27T05:32:17.385Z,95516.00
2018-07-27T05:32:49.402Z,95517.00
2018-07-27T05:33:21.409Z,95512.00
2018-07-27T05:33:53.434Z,95517.00
2018-07-27T05:34:25.541Z,95517.00
2018-07-27T05:34:57.505Z,95514.00
2018-07-27T05:35:29.514Z,95516.00
2018-07-27T05:36:01.538Z,95519.00
2018-07-27T05:36:33.565Z,95520.00
2018-07-27T05:37:05.585Z,95520.00
2018-07-27T05:37:37.598Z,95519.00
2018-07-27T05:38:09.605Z,95523.00
2018-07-27T05:38:41.618Z,95522.00
2018-07-27T05:39:13.633Z,95521.00
2018-07-27T05:39:45.639Z,95522.00
2018-07-27T05:40:17.657Z,95520.00
2018-07-27T05:40:49.686Z,95523.00
2018-07-27T05:41:21.696Z,95523.00
2018-07-27T05:41:53.716Z,95523.00
2018-07-27T05:42:25.722Z,95523.00
2018-07-27T05:42:57.743Z,95521.00
2018-07-27T05:43:29.776Z,95521.00
2018-07-27T05:44:01.787Z,95521.00
2018-07-27T05:44:33.801Z,95526.00
2018-07-27T05:45:05.821Z,95522.00
2018-07-27T05:45:37.828Z,95519.00
2018-07-27T05:46:09.832Z,95523.00
2018-07-27T05:46:41.857Z,95526.00
2018-07-27T05:47:13.900Z,95526.00
2018-07-27T05:47:45.880Z,95528.00
2018-07-27T05:48:17.887Z,95527.00
2018-07-27T05:48:49.914Z,95528.00
2018-07-27T05:49:21.937Z,95536.00
2018-07-27T05:49:53.977Z,95536.00
2018-07-27T05:50:26.108Z,95534.00
2018-07-27T05:50:58.091Z,95535.00
2018-07-27T05:51:30.117Z,95533.00
2018-07-27T05:52:02.144Z,95536.00
2018-07-27T05:52:34.155Z,95539.00
2018-07-27T05:53:06.183Z,95536.00
2018-07-27T05:53:38.210Z,95536.00
2018-07-27T05:54:10.222Z,95534.00
2018-07-27T05:54:42.275Z,95536.00
2018-07-27T05:55:14.301Z,95539.00
2018-07-27T05:55:46.313Z,95537.00
2018-07-27T05:56:18.320Z,95532.00
2018-07-27T05:56:50.341Z,95531.00
2018-07-27T05:57:22.366Z,95529.00
2018-07-27T05:57:54.400Z,95530.00
2018-07-27T05:58:26.410Z,95529.00
2018-07-27T05:58:58.423Z,95527.00
2018-07-27T05:59:30.489Z,95535.00
2018-07-27T06:00:02.474Z,95532.00
2018-07-27T06:00:34.487Z,95529.00
2018-07-27T06:01:06.527Z,95532.00
2018-07-27T06:01:38.552Z,95534.00
2018-07-27T06:02:10.601Z,95536.00
2018-07-27T06:02:42.610Z,95532.00
2018-07-27T06:03:14.603Z,95535.00
2018-07-27T06:03:46.613Z,95534.00
2018-07-27T06:04:18.634Z,95538.00
2018-07-27T06:04:50.660Z,95541.00
2018-07-27T06:05:22.650Z,95537.00
2018-07-27T06:05:54.679Z,95539.00
2018-07-27T06:06:26.693Z,95536.00
2018-07-27T06:06:58.716Z,95541.00
2018-07-27T06:07:30.725Z,95537.00
2018-07-27T06:08:02.738Z,95540.00
2018-07-27T06:08:34.752Z,95538.00
2018-07-27T06:09:06.760Z,95535.00
2018-07-27T06:09:38.785Z,95538.00
2018-07-27T06:10:10.799Z,95540.00
2018-07-27T06:10:42.822Z,95542.00
2018-07-27T06:11:14.905Z,95539.00
2018-07-27T06:11:46.877Z,95539.00
2018-07-27T06:12:18.886Z,95545.00
2018-07-27T06:12:50.925Z,95537.00
2018-07-27T06:13:22.926Z,95538.00
2018-07-27T06:13:54.946Z,95541.00
2018-07-27T06:14:26.997Z,95544.00
2018-07-27T06:14:58.980Z,95545.00
2018-07-27T06:15:31.027Z,95543.00
2018-07-27T06:16:03.202Z,95549.00